sensor_id;sensor_type;location;lat;lon;timestamp;temperature;humidity
14475;DHT22;7323;50.848;4.334;2023-04-03T00:06:37;5.50;99.90
14475;DHT22;7323;50.848;4.334;2023-04-03T00:09:17;5.40;99.90
14475;DHT22;7323;50.848;4.334;2023-04-03T00:11:54;5.40;99.90
14475;DHT22;7323;50.848;4.334;2023-04-03T00:24:56;5.40;99.90
14475;DHT22;7323;50.848;4.334;2023-04-03T00:28:10;5.40;99.90
14475;DHT22;7323;50.848;4.334;2023-04-03T00:31:32;5.40;99.90
14475;DHT22;7323;50.848;4.334;2023-04-03T00:41:30;5.20;99.90
14475;DHT22;7323;50.848;4.334;2023-04-03T00:47:35;5.10;99.90
14475;DHT22;7323;50.848;4.334;2023-04-03T00:53:59;5.10;99.90
14475;DHT22;7323;50.848;4.334;2023-04-03T01:04:58;5.10;99.90
14475;DHT22;7323;50.848;4.334;2023-04-03T01:15:14;4.90;99.90
14475;DHT22;7323;50.848;4.334;2023-04-03T01:31:57;4.70;99.90
14475;DHT22;7323;50.848;4.334;2023-04-03T01:41:19;4.60;99.90
14475;DHT22;7323;50.848;4.334;2023-04-03T01:54:38;4.50;99.90
14475;DHT22;7323;50.848;4.334;2023-04-03T02:11:26;4.40;99.90
14475;DHT22;7323;50.848;4.334;2023-04-03T02:14:19;4.50;99.90
14475;DHT22;7323;50.848;4.334;2023-04-03T02:18:05;4.50;99.90
14475;DHT22;7323;50.848;4.334;2023-04-03T02:20:36;4.50;99.90
14475;DHT22;7323;50.848;4.334;2023-04-03T02:23:23;4.50;99.90
14475;DHT22;7323;50.848;4.334;2023-04-03T02:26:10;4.40;99.90
14475;DHT22;7323;50.848;4.334;2023-04-03T02:32:41;4.40;99.90
14475;DHT22;7323;50.848;4.334;2023-04-03T02:38:24;4.40;99.90
14475;DHT22;7323;50.848;4.334;2023-04-03T02:45:35;4.30;99.90
14475;DHT22;7323;50.848;4.334;2023-04-03T02:48:25;4.20;99.90
14475;DHT22;7323;50.848;4.334;2023-04-03T02:51:04;4.20;99.90
14475;DHT22;7323;50.848;4.334;2023-04-03T02:54:11;4.30;99.90
14475;DHT22;7323;50.848;4.334;2023-04-03T02:57:02;4.20;99.90
14475;DHT22;7323;50.848;4.334;2023-04-03T03:00:57;4.10;99.90
14475;DHT22;7323;50.848;4.334;2023-04-03T03:07:09;4.20;99.90
14475;DHT22;7323;50.848;4.334;2023-04-03T03:13:33;4.20;99.90
14475;DHT22;7323;50.848;4.334;2023-04-03T03:16:36;4.20;99.90
14475;DHT22;7323;50.848;4.334;2023-04-03T03:19:59;4.20;99.90
14475;DHT22;7323;50.848;4.334;2023-04-03T03:25:40;4.20;99.90
14475;DHT22;7323;50.848;4.334;2023-04-03T03:31:39;4.20;99.90
14475;DHT22;7323;50.848;4.334;2023-04-03T03:34:16;4.20;99.90
14475;DHT22;7323;50.848;4.334;2023-04-03T03:36:58;4.10;99.90
14475;DHT22;7323;50.848;4.334;2023-04-03T03:45:49;4.10;99.90
14475;DHT22;7323;50.848;4.334;2023-04-03T03:48:28;4.00;99.90
14475;DHT22;7323;50.848;4.334;2023-04-03T03:51:17;4.10;99.90
14475;DHT22;7323;50.848;4.334;2023-04-03T03:54:07;4.20;99.90
14475;DHT22;7323;50.848;4.334;2023-04-03T04:03:54;3.90;99.90
14475;DHT22;7323;50.848;4.334;2023-04-03T04:17:37;3.90;99.90
14475;DHT22;7323;50.848;4.334;2023-04-03T04:24:17;3.90;99.90
14475;DHT22;7323;50.848;4.334;2023-04-03T04:26:58;3.80;99.90
14475;DHT22;7323;50.848;4.334;2023-04-03T04:30:06;3.80;99.90
14475;DHT22;7323;50.848;4.334;2023-04-03T04:43:24;3.60;99.90
14475;DHT22;7323;50.848;4.334;2023-04-03T04:46:27;3.60;99.90
14475;DHT22;7323;50.848;4.334;2023-04-03T04:49:35;3.40;99.90
14475;DHT22;7323;50.848;4.334;2023-04-03T04:58:59;3.50;99.90
14475;DHT22;7323;50.848;4.334;2023-04-03T05:12:26;3.50;99.90
14475;DHT22;7323;50.848;4.334;2023-04-03T05:38:27;3.40;99.90
14475;DHT22;7323;50.848;4.334;2023-04-03T05:45:30;3.50;99.90
14475;DHT22;7323;50.848;4.334;2023-04-03T05:48:44;3.50;99.90
14475;DHT22;7323;50.848;4.334;2023-04-03T06:06:25;3.70;99.90
14475;DHT22;7323;50.848;4.334;2023-04-03T06:09:03;3.70;99.90
14475;DHT22;7323;50.848;4.334;2023-04-03T06:12:29;3.80;99.90
14475;DHT22;7323;50.848;4.334;2023-04-03T06:14:56;3.80;99.90
14475;DHT22;7323;50.848;4.334;2023-04-03T06:18:08;3.80;99.90
14475;DHT22;7323;50.848;4.334;2023-04-03T06:21:27;3.90;99.90
14475;DHT22;7323;50.848;4.334;2023-04-03T06:24:42;4.00;99.90
14475;DHT22;7323;50.848;4.334;2023-04-03T06:27:26;4.10;99.90
14475;DHT22;7323;50.848;4.334;2023-04-03T06:34:07;4.20;99.90
14475;DHT22;7323;50.848;4.334;2023-04-03T06:40:45;4.20;99.90
14475;DHT22;7323;50.848;4.334;2023-04-03T06:43:38;4.30;99.90
14475;DHT22;7323;50.848;4.334;2023-04-03T06:46:48;4.20;99.90
14475;DHT22;7323;50.848;4.334;2023-04-03T06:49:59;4.10;99.90
14475;DHT22;7323;50.848;4.334;2023-04-03T06:56:06;4.20;99.90
14475;DHT22;7323;50.848;4.334;2023-04-03T06:58:46;4.30;99.90
14475;DHT22;7323;50.848;4.334;2023-04-03T07:01:47;4.30;99.90
14475;DHT22;7323;50.848;4.334;2023-04-03T07:07:51;4.30;99.90
14475;DHT22;7323;50.848;4.334;2023-04-03T07:10:22;4.30;99.90
14475;DHT22;7323;50.848;4.334;2023-04-03T07:13:10;4.40;99.90
14475;DHT22;7323;50.848;4.334;2023-04-03T07:16:24;4.30;99.90
14475;DHT22;7323;50.848;4.334;2023-04-03T07:18:50;4.40;99.90
14475;DHT22;7323;50.848;4.334;2023-04-03T07:27:34;4.70;99.90
14475;DHT22;7323;50.848;4.334;2023-04-03T07:30:00;4.70;99.90
14475;DHT22;7323;50.848;4.334;2023-04-03T07:32:31;4.80;99.90
14475;DHT22;7323;50.848;4.334;2023-04-03T07:38:30;4.90;99.90
14475;DHT22;7323;50.848;4.334;2023-04-03T07:41:55;4.90;99.90
14475;DHT22;7323;50.848;4.334;2023-04-03T07:44:43;5.10;99.90
14475;DHT22;7323;50.848;4.334;2023-04-03T07:54:18;5.30;99.90
14475;DHT22;7323;50.848;4.334;2023-04-03T08:00:20;5.40;99.90
14475;DHT22;7323;50.848;4.334;2023-04-03T08:02:52;5.30;99.90
14475;DHT22;7323;50.848;4.334;2023-04-03T08:05:26;5.40;99.90
14475;DHT22;7323;50.848;4.334;2023-04-03T08:08:22;5.60;99.90
14475;DHT22;7323;50.848;4.334;2023-04-03T08:11:04;5.80;99.90
14475;DHT22;7323;50.848;4.334;2023-04-03T08:14:05;5.90;99.90
14475;DHT22;7323;50.848;4.334;2023-04-03T08:16:39;5.90;99.90
14475;DHT22;7323;50.848;4.334;2023-04-03T08:19:18;5.80;99.90
14475;DHT22;7323;50.848;4.334;2023-04-03T08:21:54;6.00;99.90
14475;DHT22;7323;50.848;4.334;2023-04-03T08:24:24;6.10;99.90
14475;DHT22;7323;50.848;4.334;2023-04-03T08:27:17;6.10;99.90
14475;DHT22;7323;50.848;4.334;2023-04-03T08:30:17;6.10;99.90
14475;DHT22;7323;50.848;4.334;2023-04-03T08:36:14;6.20;99.90
14475;DHT22;7323;50.848;4.334;2023-04-03T08:39:01;6.40;99.90
14475;DHT22;7323;50.848;4.334;2023-04-03T08:41:42;6.50;99.90
14475;DHT22;7323;50.848;4.334;2023-04-03T08:44:39;6.50;99.90
14475;DHT22;7323;50.848;4.334;2023-04-03T08:54:55;6.40;99.90
14475;DHT22;7323;50.848;4.334;2023-04-03T08:57:38;6.50;99.90
14475;DHT22;7323;50.848;4.334;2023-04-03T09:00:25;6.70;99.90
14475;DHT22;7323;50.848;4.334;2023-04-03T09:03:12;6.80;99.90
14475;DHT22;7323;50.848;4.334;2023-04-03T09:06:03;6.90;99.90
14475;DHT22;7323;50.848;4.334;2023-04-03T09:12:32;7.10;99.90
14475;DHT22;7323;50.848;4.334;2023-04-03T09:15:23;7.20;99.90
14475;DHT22;7323;50.848;4.334;2023-04-03T09:18:33;7.10;99.90
14475;DHT22;7323;50.848;4.334;2023-04-03T09:24:36;7.20;99.90
14475;DHT22;7323;50.848;4.334;2023-04-03T09:27:10;7.30;99.90
14475;DHT22;7323;50.848;4.334;2023-04-03T09:29:43;7.40;99.90
14475;DHT22;7323;50.848;4.334;2023-04-03T09:32:30;7.40;99.90
14475;DHT22;7323;50.848;4.334;2023-04-03T09:35:20;7.50;99.90
14475;DHT22;7323;50.848;4.334;2023-04-03T09:37:51;7.70;99.90
14475;DHT22;7323;50.848;4.334;2023-04-03T09:40:37;7.70;99.90
14475;DHT22;7323;50.848;4.334;2023-04-03T09:43:20;7.80;99.90
14475;DHT22;7323;50.848;4.334;2023-04-03T09:45:48;7.70;99.90
14475;DHT22;7323;50.848;4.334;2023-04-03T09:51:00;7.90;99.90
14475;DHT22;7323;50.848;4.334;2023-04-03T09:53:38;8.20;99.90
14475;DHT22;7323;50.848;4.334;2023-04-03T09:56:29;8.10;99.90
14475;DHT22;7323;50.848;4.334;2023-04-03T10:01:57;8.20;99.90
14475;DHT22;7323;50.848;4.334;2023-04-03T10:04:23;8.20;99.90
14475;DHT22;7323;50.848;4.334;2023-04-03T10:06:54;8.20;99.90
14475;DHT22;7323;50.848;4.334;2023-04-03T10:09:23;8.20;99.90
14475;DHT22;7323;50.848;4.334;2023-04-03T10:12:08;8.20;99.90
14475;DHT22;7323;50.848;4.334;2023-04-03T10:14:53;8.10;99.90
14475;DHT22;7323;50.848;4.334;2023-04-03T10:18:00;8.10;99.90
14475;DHT22;7323;50.848;4.334;2023-04-03T10:28:25;8.40;99.90
14475;DHT22;7323;50.848;4.334;2023-04-03T10:34:01;8.50;99.90
14475;DHT22;7323;50.848;4.334;2023-04-03T10:50:58;8.90;99.90
14475;DHT22;7323;50.848;4.334;2023-04-03T10:53:30;8.80;99.90
14475;DHT22;7323;50.848;4.334;2023-04-03T10:59:23;9.00;99.90
14475;DHT22;7323;50.848;4.334;2023-04-03T11:02:13;9.10;99.90
14475;DHT22;7323;50.848;4.334;2023-04-03T11:04:42;9.10;99.90
14475;DHT22;7323;50.848;4.334;2023-04-03T11:09:48;8.90;99.90
14475;DHT22;7323;50.848;4.334;2023-04-03T11:12:42;8.90;99.90
14475;DHT22;7323;50.848;4.334;2023-04-03T11:15:16;9.00;99.90
14475;DHT22;7323;50.848;4.334;2023-04-03T11:17:48;8.90;99.90
14475;DHT22;7323;50.848;4.334;2023-04-03T11:20:20;9.00;99.90
14475;DHT22;7323;50.848;4.334;2023-04-03T11:22:58;9.00;99.90
14475;DHT22;7323;50.848;4.334;2023-04-03T11:25:30;9.30;99.90
14475;DHT22;7323;50.848;4.334;2023-04-03T11:28:03;9.30;99.90
14475;DHT22;7323;50.848;4.334;2023-04-03T11:35:48;9.50;99.90
14475;DHT22;7323;50.848;4.334;2023-04-03T11:38:28;9.40;99.90
14475;DHT22;7323;50.848;4.334;2023-04-03T11:41:08;9.40;99.90
14475;DHT22;7323;50.848;4.334;2023-04-03T11:43:58;9.50;99.90
14475;DHT22;7323;50.848;4.334;2023-04-03T11:46:57;9.70;99.90
14475;DHT22;7323;50.848;4.334;2023-04-03T12:08:51;9.70;99.90
14475;DHT22;7323;50.848;4.334;2023-04-03T12:11:45;9.70;99.90
14475;DHT22;7323;50.848;4.334;2023-04-03T12:14:22;9.80;99.90
14475;DHT22;7323;50.848;4.334;2023-04-03T12:16:49;9.70;99.90
14475;DHT22;7323;50.848;4.334;2023-04-03T12:19:38;9.80;99.90
14475;DHT22;7323;50.848;4.334;2023-04-03T12:22:14;9.60;99.90
14475;DHT22;7323;50.848;4.334;2023-04-03T12:24:50;9.70;99.90
14475;DHT22;7323;50.848;4.334;2023-04-03T12:27:40;10.00;99.90
14475;DHT22;7323;50.848;4.334;2023-04-03T12:30:16;9.80;99.90
14475;DHT22;7323;50.848;4.334;2023-04-03T12:33:20;9.70;99.90
14475;DHT22;7323;50.848;4.334;2023-04-03T12:35:58;9.60;99.90
14475;DHT22;7323;50.848;4.334;2023-04-03T12:41:46;9.90;99.90
14475;DHT22;7323;50.848;4.334;2023-04-03T12:44:26;10.00;99.90
14475;DHT22;7323;50.848;4.334;2023-04-03T12:47:00;9.90;99.90
14475;DHT22;7323;50.848;4.334;2023-04-03T12:49:38;10.00;99.90
14475;DHT22;7323;50.848;4.334;2023-04-03T12:52:51;10.00;99.90
14475;DHT22;7323;50.848;4.334;2023-04-03T12:55:23;10.00;99.90
14475;DHT22;7323;50.848;4.334;2023-04-03T13:01:13;10.10;99.90
14475;DHT22;7323;50.848;4.334;2023-04-03T13:03:45;10.00;99.90
14475;DHT22;7323;50.848;4.334;2023-04-03T13:06:30;10.00;99.90
14475;DHT22;7323;50.848;4.334;2023-04-03T13:09:01;10.10;99.50
14475;DHT22;7323;50.848;4.334;2023-04-03T13:11:32;10.10;99.90
14475;DHT22;7323;50.848;4.334;2023-04-03T13:14:05;10.10;99.90
14475;DHT22;7323;50.848;4.334;2023-04-03T13:16:39;10.20;99.90
14475;DHT22;7323;50.848;4.334;2023-04-03T13:19:17;10.30;99.80
14475;DHT22;7323;50.848;4.334;2023-04-03T13:21:44;10.20;99.90
14475;DHT22;7323;50.848;4.334;2023-04-03T13:24:11;10.40;99.50
14475;DHT22;7323;50.848;4.334;2023-04-03T13:26:37;10.30;97.10
14475;DHT22;7323;50.848;4.334;2023-04-03T13:29:21;10.40;96.70
14475;DHT22;7323;50.848;4.334;2023-04-03T13:31:53;10.30;95.70
14475;DHT22;7323;50.848;4.334;2023-04-03T13:34:20;10.40;97.50
14475;DHT22;7323;50.848;4.334;2023-04-03T13:39:25;10.40;94.70
14475;DHT22;7323;50.848;4.334;2023-04-03T13:41:55;10.40;93.20
14475;DHT22;7323;50.848;4.334;2023-04-03T13:46:58;10.40;93.20
14475;DHT22;7323;50.848;4.334;2023-04-03T13:52:40;10.60;94.80
14475;DHT22;7323;50.848;4.334;2023-04-03T13:55:33;10.70;93.40
14475;DHT22;7323;50.848;4.334;2023-04-03T13:58:16;10.80;94.10
14475;DHT22;7323;50.848;4.334;2023-04-03T14:00:51;10.80;94.20
14475;DHT22;7323;50.848;4.334;2023-04-03T14:03:28;10.70;94.30
14475;DHT22;7323;50.848;4.334;2023-04-03T14:05:55;10.70;92.90
14475;DHT22;7323;50.848;4.334;2023-04-03T14:08:22;10.70;94.20
14475;DHT22;7323;50.848;4.334;2023-04-03T14:10:48;10.80;93.60
14475;DHT22;7323;50.848;4.334;2023-04-03T14:13:17;10.70;93.40
14475;DHT22;7323;50.848;4.334;2023-04-03T14:15:46;10.70;93.70
14475;DHT22;7323;50.848;4.334;2023-04-03T14:18:17;10.60;93.80
14475;DHT22;7323;50.848;4.334;2023-04-03T14:20:44;10.70;92.70
14475;DHT22;7323;50.848;4.334;2023-04-03T14:23:10;10.80;92.70
14475;DHT22;7323;50.848;4.334;2023-04-03T14:25:38;10.80;91.50
14475;DHT22;7323;50.848;4.334;2023-04-03T14:28:15;10.90;93.40
14475;DHT22;7323;50.848;4.334;2023-04-03T14:30:41;10.80;92.10
14475;DHT22;7323;50.848;4.334;2023-04-03T14:33:13;10.80;92.10
14475;DHT22;7323;50.848;4.334;2023-04-03T14:35:40;10.90;93.10
14475;DHT22;7323;50.848;4.334;2023-04-03T14:38:28;10.90;92.80
14475;DHT22;7323;50.848;4.334;2023-04-03T14:40:57;10.60;92.50
14475;DHT22;7323;50.848;4.334;2023-04-03T14:43:23;10.60;93.20
14475;DHT22;7323;50.848;4.334;2023-04-03T14:49:19;10.90;93.00
14475;DHT22;7323;50.848;4.334;2023-04-03T14:51:47;10.90;91.00
14475;DHT22;7323;50.848;4.334;2023-04-03T14:54:15;10.90;91.80
14475;DHT22;7323;50.848;4.334;2023-04-03T14:56:45;11.20;92.00
14475;DHT22;7323;50.848;4.334;2023-04-03T14:59:14;11.40;92.40
14475;DHT22;7323;50.848;4.334;2023-04-03T15:01:41;11.50;93.40
14475;DHT22;7323;50.848;4.334;2023-04-03T15:04:15;11.30;92.30
14475;DHT22;7323;50.848;4.334;2023-04-03T15:06:42;11.20;92.90
14475;DHT22;7323;50.848;4.334;2023-04-03T15:09:21;11.20;92.80
14475;DHT22;7323;50.848;4.334;2023-04-03T15:11:49;11.40;93.40
14475;DHT22;7323;50.848;4.334;2023-04-03T15:14:15;11.50;92.20
14475;DHT22;7323;50.848;4.334;2023-04-03T15:16:40;11.40;92.80
14475;DHT22;7323;50.848;4.334;2023-04-03T15:19:06;11.40;91.50
14475;DHT22;7323;50.848;4.334;2023-04-03T15:21:33;11.60;91.30
14475;DHT22;7323;50.848;4.334;2023-04-03T15:24:02;11.50;89.20
14475;DHT22;7323;50.848;4.334;2023-04-03T15:26:27;11.50;90.40
14475;DHT22;7323;50.848;4.334;2023-04-03T15:28:53;11.70;90.20
14475;DHT22;7323;50.848;4.334;2023-04-03T15:31:19;11.80;90.40
14475;DHT22;7323;50.848;4.334;2023-04-03T15:33:45;11.70;90.00
14475;DHT22;7323;50.848;4.334;2023-04-03T15:36:11;11.70;89.80
14475;DHT22;7323;50.848;4.334;2023-04-03T15:38:37;11.70;88.20
14475;DHT22;7323;50.848;4.334;2023-04-03T15:41:04;11.80;89.00
14475;DHT22;7323;50.848;4.334;2023-04-03T15:43:30;11.80;88.50
14475;DHT22;7323;50.848;4.334;2023-04-03T15:46:01;11.50;85.00
14475;DHT22;7323;50.848;4.334;2023-04-03T15:48:27;11.50;87.10
14475;DHT22;7323;50.848;4.334;2023-04-03T15:50:56;11.50;87.10
14475;DHT22;7323;50.848;4.334;2023-04-03T15:53:28;11.40;86.10
14475;DHT22;7323;50.848;4.334;2023-04-03T15:56:05;11.40;86.30
14475;DHT22;7323;50.848;4.334;2023-04-03T15:58:33;11.30;87.30
14475;DHT22;7323;50.848;4.334;2023-04-03T16:00:59;11.50;86.40
14475;DHT22;7323;50.848;4.334;2023-04-03T16:03:25;11.50;89.40
14475;DHT22;7323;50.848;4.334;2023-04-03T16:05:53;11.70;89.10
14475;DHT22;7323;50.848;4.334;2023-04-03T16:08:19;11.70;87.00
14475;DHT22;7323;50.848;4.334;2023-04-03T16:10:45;11.70;88.80
14475;DHT22;7323;50.848;4.334;2023-04-03T16:13:13;11.90;90.00
14475;DHT22;7323;50.848;4.334;2023-04-03T16:15:40;11.80;88.20
14475;DHT22;7323;50.848;4.334;2023-04-03T16:18:15;11.70;86.60
14475;DHT22;7323;50.848;4.334;2023-04-03T16:20:52;11.70;85.60
14475;DHT22;7323;50.848;4.334;2023-04-03T16:23:20;12.10;89.60
14475;DHT22;7323;50.848;4.334;2023-04-03T16:25:48;12.60;86.60
14475;DHT22;7323;50.848;4.334;2023-04-03T16:28:16;13.00;85.50
14475;DHT22;7323;50.848;4.334;2023-04-03T16:30:44;13.40;83.30
14475;DHT22;7323;50.848;4.334;2023-04-03T16:33:22;14.10;81.90
14475;DHT22;7323;50.848;4.334;2023-04-03T16:35:49;14.40;78.40
14475;DHT22;7323;50.848;4.334;2023-04-03T16:38:18;14.10;79.40
14475;DHT22;7323;50.848;4.334;2023-04-03T16:40:48;13.90;79.70
14475;DHT22;7323;50.848;4.334;2023-04-03T16:43:19;14.40;79.10
14475;DHT22;7323;50.848;4.334;2023-04-03T16:45:48;14.80;77.10
14475;DHT22;7323;50.848;4.334;2023-04-03T16:48:14;15.10;75.60
14475;DHT22;7323;50.848;4.334;2023-04-03T16:50:40;15.20;75.50
14475;DHT22;7323;50.848;4.334;2023-04-03T16:53:05;15.20;76.30
14475;DHT22;7323;50.848;4.334;2023-04-03T16:55:38;15.10;77.30
14475;DHT22;7323;50.848;4.334;2023-04-03T16:58:09;15.20;75.50
14475;DHT22;7323;50.848;4.334;2023-04-03T17:00:36;15.00;74.10
14475;DHT22;7323;50.848;4.334;2023-04-03T17:03:02;14.10;77.50
14475;DHT22;7323;50.848;4.334;2023-04-03T17:05:29;13.50;81.20
14475;DHT22;7323;50.848;4.334;2023-04-03T17:07:54;13.20;83.70
14475;DHT22;7323;50.848;4.334;2023-04-03T17:10:20;12.30;85.30
14475;DHT22;7323;50.848;4.334;2023-04-03T17:12:49;11.70;88.80
14475;DHT22;7323;50.848;4.334;2023-04-03T17:15:18;11.50;90.80
14475;DHT22;7323;50.848;4.334;2023-04-03T17:17:51;11.30;91.20
14475;DHT22;7323;50.848;4.334;2023-04-03T17:20:30;11.10;91.70
14475;DHT22;7323;50.848;4.334;2023-04-03T17:23:06;11.10;92.30
14475;DHT22;7323;50.848;4.334;2023-04-03T17:25:49;11.30;93.10
14475;DHT22;7323;50.848;4.334;2023-04-03T17:28:25;11.80;93.40
14475;DHT22;7323;50.848;4.334;2023-04-03T17:30:59;12.30;92.60
14475;DHT22;7323;50.848;4.334;2023-04-03T17:33:26;12.70;90.50
14475;DHT22;7323;50.848;4.334;2023-04-03T17:36:03;13.00;90.30
14475;DHT22;7323;50.848;4.334;2023-04-03T17:38:30;13.10;89.60
14475;DHT22;7323;50.848;4.334;2023-04-03T17:41:05;13.00;88.50
14475;DHT22;7323;50.848;4.334;2023-04-03T17:43:33;12.90;89.90
14475;DHT22;7323;50.848;4.334;2023-04-03T17:46:01;12.90;90.80
14475;DHT22;7323;50.848;4.334;2023-04-03T17:48:31;12.10;90.90
14475;DHT22;7323;50.848;4.334;2023-04-03T17:51:02;11.40;92.70
14475;DHT22;7323;50.848;4.334;2023-04-03T17:53:27;11.00;94.40
14475;DHT22;7323;50.848;4.334;2023-04-03T17:55:56;10.90;95.00
14475;DHT22;7323;50.848;4.334;2023-04-03T17:58:28;11.10;95.20
14475;DHT22;7323;50.848;4.334;2023-04-03T18:00:54;11.30;95.00
14475;DHT22;7323;50.848;4.334;2023-04-03T18:03:21;10.90;96.00
14475;DHT22;7323;50.848;4.334;2023-04-03T18:05:47;10.60;97.50
14475;DHT22;7323;50.848;4.334;2023-04-03T18:08:15;10.30;98.90
14475;DHT22;7323;50.848;4.334;2023-04-03T18:10:43;10.00;99.90
14475;DHT22;7323;50.848;4.334;2023-04-03T18:13:10;9.90;99.90
14475;DHT22;7323;50.848;4.334;2023-04-03T18:15:35;9.80;99.90
14475;DHT22;7323;50.848;4.334;2023-04-03T18:18:10;9.70;99.90
14475;DHT22;7323;50.848;4.334;2023-04-03T18:20:38;9.70;99.90
14475;DHT22;7323;50.848;4.334;2023-04-03T18:23:04;9.70;99.90
14475;DHT22;7323;50.848;4.334;2023-04-03T18:25:35;9.60;99.90
14475;DHT22;7323;50.848;4.334;2023-04-03T18:28:03;9.60;99.90
14475;DHT22;7323;50.848;4.334;2023-04-03T18:30:41;9.60;99.90
14475;DHT22;7323;50.848;4.334;2023-04-03T18:33:07;9.30;99.90
14475;DHT22;7323;50.848;4.334;2023-04-03T18:35:34;9.70;99.90
14475;DHT22;7323;50.848;4.334;2023-04-03T18:38:01;9.50;99.90
14475;DHT22;7323;50.848;4.334;2023-04-03T18:41:05;9.50;99.90
14475;DHT22;7323;50.848;4.334;2023-04-03T18:44:02;9.40;99.90
14475;DHT22;7323;50.848;4.334;2023-04-03T18:46:54;9.30;99.90
14475;DHT22;7323;50.848;4.334;2023-04-03T18:49:25;9.20;99.90
14475;DHT22;7323;50.848;4.334;2023-04-03T18:51:52;9.00;99.90
14475;DHT22;7323;50.848;4.334;2023-04-03T18:54:31;9.00;99.90
14475;DHT22;7323;50.848;4.334;2023-04-03T18:57:03;9.00;99.90
14475;DHT22;7323;50.848;4.334;2023-04-03T18:59:39;9.00;99.90
14475;DHT22;7323;50.848;4.334;2023-04-03T19:02:05;9.00;99.90
14475;DHT22;7323;50.848;4.334;2023-04-03T19:04:34;8.90;99.90
14475;DHT22;7323;50.848;4.334;2023-04-03T19:07:02;8.80;99.90
14475;DHT22;7323;50.848;4.334;2023-04-03T19:09:31;8.80;99.90
14475;DHT22;7323;50.848;4.334;2023-04-03T19:11:59;8.80;99.90
14475;DHT22;7323;50.848;4.334;2023-04-03T19:14:27;8.80;99.90
14475;DHT22;7323;50.848;4.334;2023-04-03T19:16:54;8.80;99.90
14475;DHT22;7323;50.848;4.334;2023-04-03T19:19:20;8.70;99.90
14475;DHT22;7323;50.848;4.334;2023-04-03T19:21:46;8.70;99.90
14475;DHT22;7323;50.848;4.334;2023-04-03T19:24:16;8.70;99.90
14475;DHT22;7323;50.848;4.334;2023-04-03T19:26:43;8.70;99.90
14475;DHT22;7323;50.848;4.334;2023-04-03T19:29:09;8.60;99.90
14475;DHT22;7323;50.848;4.334;2023-04-03T19:31:37;8.50;99.90
14475;DHT22;7323;50.848;4.334;2023-04-03T19:34:07;8.50;99.90
14475;DHT22;7323;50.848;4.334;2023-04-03T19:36:33;8.40;99.90
14475;DHT22;7323;50.848;4.334;2023-04-03T19:39:04;8.40;99.90
14475;DHT22;7323;50.848;4.334;2023-04-03T19:41:40;8.40;99.90
14475;DHT22;7323;50.848;4.334;2023-04-03T19:44:09;8.30;99.90
14475;DHT22;7323;50.848;4.334;2023-04-03T19:46:35;8.50;99.90
14475;DHT22;7323;50.848;4.334;2023-04-03T19:49:02;8.30;99.90
14475;DHT22;7323;50.848;4.334;2023-04-03T19:51:30;8.20;99.90
14475;DHT22;7323;50.848;4.334;2023-04-03T19:53:56;8.20;99.90
14475;DHT22;7323;50.848;4.334;2023-04-03T19:56:24;8.30;99.90
14475;DHT22;7323;50.848;4.334;2023-04-03T19:58:53;8.10;99.90
14475;DHT22;7323;50.848;4.334;2023-04-03T20:01:20;8.10;99.90
14475;DHT22;7323;50.848;4.334;2023-04-03T20:03:47;8.10;99.90
14475;DHT22;7323;50.848;4.334;2023-04-03T20:06:14;8.00;99.90
14475;DHT22;7323;50.848;4.334;2023-04-03T20:08:40;8.00;99.90
14475;DHT22;7323;50.848;4.334;2023-04-03T20:11:08;7.90;99.90
14475;DHT22;7323;50.848;4.334;2023-04-03T20:13:38;7.90;99.90
14475;DHT22;7323;50.848;4.334;2023-04-03T20:16:09;7.90;99.90
14475;DHT22;7323;50.848;4.334;2023-04-03T20:18:38;7.80;99.90
14475;DHT22;7323;50.848;4.334;2023-04-03T20:21:09;7.80;99.90
14475;DHT22;7323;50.848;4.334;2023-04-03T20:23:35;7.70;99.90
14475;DHT22;7323;50.848;4.334;2023-04-03T20:26:06;7.70;99.90
14475;DHT22;7323;50.848;4.334;2023-04-03T20:28:32;7.70;99.90
14475;DHT22;7323;50.848;4.334;2023-04-03T20:31:01;7.60;99.90
14475;DHT22;7323;50.848;4.334;2023-04-03T20:33:27;7.60;99.90
14475;DHT22;7323;50.848;4.334;2023-04-03T20:35:57;7.60;99.90
14475;DHT22;7323;50.848;4.334;2023-04-03T20:38:24;7.50;99.90
14475;DHT22;7323;50.848;4.334;2023-04-03T20:40:50;7.50;99.90
14475;DHT22;7323;50.848;4.334;2023-04-03T20:43:16;7.50;99.90
14475;DHT22;7323;50.848;4.334;2023-04-03T20:45:43;7.60;99.90
14475;DHT22;7323;50.848;4.334;2023-04-03T20:48:36;7.50;99.90
14475;DHT22;7323;50.848;4.334;2023-04-03T20:51:24;7.60;99.90
14475;DHT22;7323;50.848;4.334;2023-04-03T20:53:54;7.40;99.90
14475;DHT22;7323;50.848;4.334;2023-04-03T20:56:19;7.40;99.90
14475;DHT22;7323;50.848;4.334;2023-04-03T20:58:45;7.40;99.90
14475;DHT22;7323;50.848;4.334;2023-04-03T21:01:22;7.40;99.90
14475;DHT22;7323;50.848;4.334;2023-04-03T21:03:54;7.40;99.90
14475;DHT22;7323;50.848;4.334;2023-04-03T21:19:33;7.10;99.90
14475;DHT22;7323;50.848;4.334;2023-04-03T21:21:35;7.10;99.90
14475;DHT22;7323;50.848;4.334;2023-04-03T21:24:06;7.00;99.90
14475;DHT22;7323;50.848;4.334;2023-04-03T21:26:35;7.00;99.90
14475;DHT22;7323;50.848;4.334;2023-04-03T21:29:03;7.00;99.90
14475;DHT22;7323;50.848;4.334;2023-04-03T21:31:53;7.00;99.90
14475;DHT22;7323;50.848;4.334;2023-04-03T21:34:23;6.90;99.90
14475;DHT22;7323;50.848;4.334;2023-04-03T21:36:53;7.00;99.90
14475;DHT22;7323;50.848;4.334;2023-04-03T21:39:20;6.90;99.90
14475;DHT22;7323;50.848;4.334;2023-04-03T21:41:51;6.90;99.90
14475;DHT22;7323;50.848;4.334;2023-04-03T21:44:17;6.90;99.90
14475;DHT22;7323;50.848;4.334;2023-04-03T21:46:47;6.80;99.90
14475;DHT22;7323;50.848;4.334;2023-04-03T21:49:13;6.70;99.90
14475;DHT22;7323;50.848;4.334;2023-04-03T21:51:40;6.80;99.90
14475;DHT22;7323;50.848;4.334;2023-04-03T21:54:08;6.60;99.90
14475;DHT22;7323;50.848;4.334;2023-04-03T21:56:34;6.60;99.90
14475;DHT22;7323;50.848;4.334;2023-04-03T21:59:02;6.60;99.90
14475;DHT22;7323;50.848;4.334;2023-04-03T22:01:29;6.50;99.90
14475;DHT22;7323;50.848;4.334;2023-04-03T22:03:57;6.50;99.90
14475;DHT22;7323;50.848;4.334;2023-04-03T22:06:27;6.50;99.90
14475;DHT22;7323;50.848;4.334;2023-04-03T22:08:54;6.40;99.90
14475;DHT22;7323;50.848;4.334;2023-04-03T22:11:23;6.50;99.90
14475;DHT22;7323;50.848;4.334;2023-04-03T22:13:55;6.50;99.90
14475;DHT22;7323;50.848;4.334;2023-04-03T22:16:22;6.50;99.90
14475;DHT22;7323;50.848;4.334;2023-04-03T22:18:50;6.40;99.90
14475;DHT22;7323;50.848;4.334;2023-04-03T22:21:19;6.60;99.90
14475;DHT22;7323;50.848;4.334;2023-04-03T22:23:47;6.40;99.90
14475;DHT22;7323;50.848;4.334;2023-04-03T22:26:13;6.40;99.90
14475;DHT22;7323;50.848;4.334;2023-04-03T22:28:43;6.70;99.90
14475;DHT22;7323;50.848;4.334;2023-04-03T22:31:12;6.60;99.90
14475;DHT22;7323;50.848;4.334;2023-04-03T22:33:41;6.40;99.90
14475;DHT22;7323;50.848;4.334;2023-04-03T22:36:11;6.30;99.90
14475;DHT22;7323;50.848;4.334;2023-04-03T22:38:44;6.30;99.90
14475;DHT22;7323;50.848;4.334;2023-04-03T22:41:14;6.30;99.90
14475;DHT22;7323;50.848;4.334;2023-04-03T22:43:43;6.20;99.90
14475;DHT22;7323;50.848;4.334;2023-04-03T22:46:09;6.10;99.90
14475;DHT22;7323;50.848;4.334;2023-04-03T22:48:36;6.10;99.90
14475;DHT22;7323;50.848;4.334;2023-04-03T22:51:05;6.10;99.90
14475;DHT22;7323;50.848;4.334;2023-04-03T22:53:34;6.00;99.90
14475;DHT22;7323;50.848;4.334;2023-04-03T22:56:06;6.00;99.90